sensor_id;sensor_type;location;lat;lon;timestamp;temperature;humidity
63313;DHT22;49442;45.640;13.812;2023-03-31T00:01:30;12.70;99.90
63313;DHT22;49442;45.640;13.812;2023-03-31T00:03:58;12.70;99.90
63313;DHT22;49442;45.640;13.812;2023-03-31T00:06:32;12.70;99.90
63313;DHT22;49442;45.640;13.812;2023-03-31T00:09:03;12.70;99.90
63313;DHT22;49442;45.640;13.812;2023-03-31T00:11:29;12.70;99.90
63313;DHT22;49442;45.640;13.812;2023-03-31T00:13:55;12.70;99.90
63313;DHT22;49442;45.640;13.812;2023-03-31T00:16:21;12.60;99.90
63313;DHT22;49442;45.640;13.812;2023-03-31T00:18:46;12.60;99.90
63313;DHT22;49442;45.640;13.812;2023-03-31T00:21:24;12.60;99.90
63313;DHT22;49442;45.640;13.812;2023-03-31T00:26:20;12.60;99.90
63313;DHT22;49442;45.640;13.812;2023-03-31T00:28:48;12.60;99.90
63313;DHT22;49442;45.640;13.812;2023-03-31T00:31:14;12.60;99.90
63313;DHT22;49442;45.640;13.812;2023-03-31T00:33:40;12.60;99.90
63313;DHT22;49442;45.640;13.812;2023-03-31T00:36:06;12.60;99.90
63313;DHT22;49442;45.640;13.812;2023-03-31T00:38:32;12.60;99.90
63313;DHT22;49442;45.640;13.812;2023-03-31T00:40:59;12.60;99.90
63313;DHT22;49442;45.640;13.812;2023-03-31T00:43:34;12.60;99.90
63313;DHT22;49442;45.640;13.812;2023-03-31T00:46:21;12.60;99.90
63313;DHT22;49442;45.640;13.812;2023-03-31T00:48:52;12.70;99.90
63313;DHT22;49442;45.640;13.812;2023-03-31T00:51:21;12.70;99.90
63313;DHT22;49442;45.640;13.812;2023-03-31T00:53:53;12.80;99.90
63313;DHT22;49442;45.640;13.812;2023-03-31T00:56:22;12.70;99.90
63313;DHT22;49442;45.640;13.812;2023-03-31T00:58:49;12.80;99.90
63313;DHT22;49442;45.640;13.812;2023-03-31T01:01:18;12.70;99.90
63313;DHT22;49442;45.640;13.812;2023-03-31T01:03:45;12.70;99.90
63313;DHT22;49442;45.640;13.812;2023-03-31T01:06:14;12.70;99.90
63313;DHT22;49442;45.640;13.812;2023-03-31T01:08:42;12.70;99.90
63313;DHT22;49442;45.640;13.812;2023-03-31T01:11:11;12.80;99.90
63313;DHT22;49442;45.640;13.812;2023-03-31T01:13:38;12.80;99.90
63313;DHT22;49442;45.640;13.812;2023-03-31T01:16:05;12.90;99.90
63313;DHT22;49442;45.640;13.812;2023-03-31T01:18:32;12.80;99.90
63313;DHT22;49442;45.640;13.812;2023-03-31T01:26:55;12.80;99.90
63313;DHT22;49442;45.640;13.812;2023-03-31T01:46:25;12.80;99.90
63313;DHT22;49442;45.640;13.812;2023-03-31T01:54:47;12.60;99.90
63313;DHT22;49442;45.640;13.812;2023-03-31T01:57:34;12.50;99.90
63313;DHT22;49442;45.640;13.812;2023-03-31T02:00:11;12.50;99.90
63313;DHT22;49442;45.640;13.812;2023-03-31T02:05:11;12.40;99.90
63313;DHT22;49442;45.640;13.812;2023-03-31T02:07:47;12.40;99.90
63313;DHT22;49442;45.640;13.812;2023-03-31T02:10:16;12.50;99.90
63313;DHT22;49442;45.640;13.812;2023-03-31T02:12:43;12.50;99.90
63313;DHT22;49442;45.640;13.812;2023-03-31T02:15:17;12.50;99.90
63313;DHT22;49442;45.640;13.812;2023-03-31T02:17:48;12.50;99.90
63313;DHT22;49442;45.640;13.812;2023-03-31T02:20:18;12.50;99.90
63313;DHT22;49442;45.640;13.812;2023-03-31T02:22:53;12.60;99.90
63313;DHT22;49442;45.640;13.812;2023-03-31T02:25:23;12.60;99.90
63313;DHT22;49442;45.640;13.812;2023-03-31T02:27:53;12.60;99.90
63313;DHT22;49442;45.640;13.812;2023-03-31T02:30:19;12.60;99.90
63313;DHT22;49442;45.640;13.812;2023-03-31T02:32:45;12.60;99.90
63313;DHT22;49442;45.640;13.812;2023-03-31T02:35:16;12.60;99.90
63313;DHT22;49442;45.640;13.812;2023-03-31T02:37:44;12.60;99.90
63313;DHT22;49442;45.640;13.812;2023-03-31T02:40:17;12.50;99.90
63313;DHT22;49442;45.640;13.812;2023-03-31T02:42:43;12.60;99.90
63313;DHT22;49442;45.640;13.812;2023-03-31T02:48:10;12.50;99.90
63313;DHT22;49442;45.640;13.812;2023-03-31T02:50:53;12.60;99.90
63313;DHT22;49442;45.640;13.812;2023-03-31T02:58:51;12.70;99.90
63313;DHT22;49442;45.640;13.812;2023-03-31T03:04:12;12.70;99.90
63313;DHT22;49442;45.640;13.812;2023-03-31T03:06:46;12.60;99.90
63313;DHT22;49442;45.640;13.812;2023-03-31T03:17:16;12.80;99.90
63313;DHT22;49442;45.640;13.812;2023-03-31T03:19:43;12.80;99.90
63313;DHT22;49442;45.640;13.812;2023-03-31T03:22:08;12.80;99.90
63313;DHT22;49442;45.640;13.812;2023-03-31T03:24:34;12.70;99.90
63313;DHT22;49442;45.640;13.812;2023-03-31T03:27:00;12.70;99.90
63313;DHT22;49442;45.640;13.812;2023-03-31T03:29:27;12.70;99.90
63313;DHT22;49442;45.640;13.812;2023-03-31T03:31:53;12.80;99.90
63313;DHT22;49442;45.640;13.812;2023-03-31T03:34:18;12.70;99.90
63313;DHT22;49442;45.640;13.812;2023-03-31T03:36:45;12.70;99.90
63313;DHT22;49442;45.640;13.812;2023-03-31T03:39:11;12.70;99.90
63313;DHT22;49442;45.640;13.812;2023-03-31T03:41:37;12.70;99.90
63313;DHT22;49442;45.640;13.812;2023-03-31T03:44:03;12.70;99.90
63313;DHT22;49442;45.640;13.812;2023-03-31T03:46:29;12.70;99.90
63313;DHT22;49442;45.640;13.812;2023-03-31T03:48:55;12.70;99.90
63313;DHT22;49442;45.640;13.812;2023-03-31T03:51:21;12.60;99.90
63313;DHT22;49442;45.640;13.812;2023-03-31T03:53:47;12.60;99.90
63313;DHT22;49442;45.640;13.812;2023-03-31T03:56:12;12.60;99.90
63313;DHT22;49442;45.640;13.812;2023-03-31T03:58:38;12.70;99.90
63313;DHT22;49442;45.640;13.812;2023-03-31T04:01:04;12.70;99.90
63313;DHT22;49442;45.640;13.812;2023-03-31T04:03:30;12.60;99.90
63313;DHT22;49442;45.640;13.812;2023-03-31T04:05:56;12.60;99.90
63313;DHT22;49442;45.640;13.812;2023-03-31T04:08:21;12.60;99.90
63313;DHT22;49442;45.640;13.812;2023-03-31T04:10:48;12.60;99.90
63313;DHT22;49442;45.640;13.812;2023-03-31T04:13:15;12.60;99.90
63313;DHT22;49442;45.640;13.812;2023-03-31T04:15:41;12.70;99.90
63313;DHT22;49442;45.640;13.812;2023-03-31T04:18:07;12.70;99.90
63313;DHT22;49442;45.640;13.812;2023-03-31T04:20:36;12.60;99.90
63313;DHT22;49442;45.640;13.812;2023-03-31T04:23:03;12.60;99.90
63313;DHT22;49442;45.640;13.812;2023-03-31T04:25:30;12.60;99.90
63313;DHT22;49442;45.640;13.812;2023-03-31T04:27:56;12.60;99.90
63313;DHT22;49442;45.640;13.812;2023-03-31T04:30:23;12.60;99.90
63313;DHT22;49442;45.640;13.812;2023-03-31T04:32:54;12.60;99.90
63313;DHT22;49442;45.640;13.812;2023-03-31T04:35:21;12.70;99.90
63313;DHT22;49442;45.640;13.812;2023-03-31T04:37:48;12.70;99.90
63313;DHT22;49442;45.640;13.812;2023-03-31T04:40:15;12.70;99.90
63313;DHT22;49442;45.640;13.812;2023-03-31T04:42:42;12.70;99.90
63313;DHT22;49442;45.640;13.812;2023-03-31T04:45:09;12.60;99.90
63313;DHT22;49442;45.640;13.812;2023-03-31T04:47:35;12.60;99.90
63313;DHT22;49442;45.640;13.812;2023-03-31T04:50:01;12.70;99.90
63313;DHT22;49442;45.640;13.812;2023-03-31T04:52:27;12.70;99.90
63313;DHT22;49442;45.640;13.812;2023-03-31T04:54:53;12.70;99.90
63313;DHT22;49442;45.640;13.812;2023-03-31T04:57:18;12.70;99.90
63313;DHT22;49442;45.640;13.812;2023-03-31T04:59:44;12.60;99.90
63313;DHT22;49442;45.640;13.812;2023-03-31T05:02:10;12.70;99.90
63313;DHT22;49442;45.640;13.812;2023-03-31T05:04:36;12.80;99.90
63313;DHT22;49442;45.640;13.812;2023-03-31T05:07:02;12.80;99.90
63313;DHT22;49442;45.640;13.812;2023-03-31T05:09:28;12.80;99.90
63313;DHT22;49442;45.640;13.812;2023-03-31T05:11:54;12.80;99.90
63313;DHT22;49442;45.640;13.812;2023-03-31T05:14:20;12.70;99.90
63313;DHT22;49442;45.640;13.812;2023-03-31T05:16:46;12.70;99.90
63313;DHT22;49442;45.640;13.812;2023-03-31T05:19:12;12.70;99.90
63313;DHT22;49442;45.640;13.812;2023-03-31T05:21:38;12.70;99.90
63313;DHT22;49442;45.640;13.812;2023-03-31T05:24:03;12.70;99.90
63313;DHT22;49442;45.640;13.812;2023-03-31T05:26:29;12.70;99.90
63313;DHT22;49442;45.640;13.812;2023-03-31T05:28:55;12.80;99.90
63313;DHT22;49442;45.640;13.812;2023-03-31T05:31:21;12.80;99.90
63313;DHT22;49442;45.640;13.812;2023-03-31T05:33:47;12.80;99.90
63313;DHT22;49442;45.640;13.812;2023-03-31T05:36:15;12.80;99.90
63313;DHT22;49442;45.640;13.812;2023-03-31T05:38:42;12.80;99.90
63313;DHT22;49442;45.640;13.812;2023-03-31T05:41:09;12.70;99.90
63313;DHT22;49442;45.640;13.812;2023-03-31T05:43:36;12.70;99.90
63313;DHT22;49442;45.640;13.812;2023-03-31T05:46:15;12.80;99.90
63313;DHT22;49442;45.640;13.812;2023-03-31T05:48:43;12.80;99.90
63313;DHT22;49442;45.640;13.812;2023-03-31T05:51:09;12.80;99.90
63313;DHT22;49442;45.640;13.812;2023-03-31T05:53:35;12.80;99.90
63313;DHT22;49442;45.640;13.812;2023-03-31T05:56:04;12.90;99.90
63313;DHT22;49442;45.640;13.812;2023-03-31T05:58:33;12.80;99.90
63313;DHT22;49442;45.640;13.812;2023-03-31T06:01:11;12.90;99.90
63313;DHT22;49442;45.640;13.812;2023-03-31T06:03:40;12.90;99.90
63313;DHT22;49442;45.640;13.812;2023-03-31T06:06:09;13.00;99.90
63313;DHT22;49442;45.640;13.812;2023-03-31T06:08:39;12.90;99.90
63313;DHT22;49442;45.640;13.812;2023-03-31T06:11:06;13.00;99.90
63313;DHT22;49442;45.640;13.812;2023-03-31T06:13:33;13.00;99.90
63313;DHT22;49442;45.640;13.812;2023-03-31T06:16:02;13.00;99.90
63313;DHT22;49442;45.640;13.812;2023-03-31T06:18:30;13.10;99.90
63313;DHT22;49442;45.640;13.812;2023-03-31T06:20:57;13.10;99.90
63313;DHT22;49442;45.640;13.812;2023-03-31T06:23:27;13.10;99.90
63313;DHT22;49442;45.640;13.812;2023-03-31T06:25:53;13.10;99.90
63313;DHT22;49442;45.640;13.812;2023-03-31T06:28:23;13.10;99.90
63313;DHT22;49442;45.640;13.812;2023-03-31T06:30:50;13.10;99.90
63313;DHT22;49442;45.640;13.812;2023-03-31T06:33:17;13.20;99.90
63313;DHT22;49442;45.640;13.812;2023-03-31T06:35:44;13.30;99.90
63313;DHT22;49442;45.640;13.812;2023-03-31T06:38:10;13.30;99.90
63313;DHT22;49442;45.640;13.812;2023-03-31T06:40:35;13.30;99.90
63313;DHT22;49442;45.640;13.812;2023-03-31T06:43:01;13.30;99.90
63313;DHT22;49442;45.640;13.812;2023-03-31T06:45:27;13.30;99.90
63313;DHT22;49442;45.640;13.812;2023-03-31T06:47:52;13.30;99.90
63313;DHT22;49442;45.640;13.812;2023-03-31T06:50:18;13.30;99.90
63313;DHT22;49442;45.640;13.812;2023-03-31T06:52:44;13.40;99.90
63313;DHT22;49442;45.640;13.812;2023-03-31T06:55:09;13.40;99.90
63313;DHT22;49442;45.640;13.812;2023-03-31T06:57:37;13.30;99.90
63313;DHT22;49442;45.640;13.812;2023-03-31T07:00:04;13.30;99.90
63313;DHT22;49442;45.640;13.812;2023-03-31T07:02:30;13.20;99.90
63313;DHT22;49442;45.640;13.812;2023-03-31T07:04:56;13.20;99.90
63313;DHT22;49442;45.640;13.812;2023-03-31T07:07:24;13.30;99.90
63313;DHT22;49442;45.640;13.812;2023-03-31T07:09:52;13.30;99.90
63313;DHT22;49442;45.640;13.812;2023-03-31T07:12:17;13.40;99.90
63313;DHT22;49442;45.640;13.812;2023-03-31T07:14:44;13.30;99.90
63313;DHT22;49442;45.640;13.812;2023-03-31T07:17:10;13.30;99.90
63313;DHT22;49442;45.640;13.812;2023-03-31T07:19:36;13.30;99.90
63313;DHT22;49442;45.640;13.812;2023-03-31T07:22:02;13.30;99.90
63313;DHT22;49442;45.640;13.812;2023-03-31T07:24:28;13.40;99.90
63313;DHT22;49442;45.640;13.812;2023-03-31T07:26:54;13.40;99.90
63313;DHT22;49442;45.640;13.812;2023-03-31T07:29:20;13.50;99.90
63313;DHT22;49442;45.640;13.812;2023-03-31T07:31:46;13.50;99.90
63313;DHT22;49442;45.640;13.812;2023-03-31T07:34:12;13.40;99.90
63313;DHT22;49442;45.640;13.812;2023-03-31T07:36:37;13.40;99.90
63313;DHT22;49442;45.640;13.812;2023-03-31T07:39:05;13.30;99.90
63313;DHT22;49442;45.640;13.812;2023-03-31T07:41:30;13.30;99.90
63313;DHT22;49442;45.640;13.812;2023-03-31T07:43:56;13.30;99.90
63313;DHT22;49442;45.640;13.812;2023-03-31T07:46:26;13.30;99.90
63313;DHT22;49442;45.640;13.812;2023-03-31T07:48:54;13.30;99.90
63313;DHT22;49442;45.640;13.812;2023-03-31T07:51:22;13.30;99.90
63313;DHT22;49442;45.640;13.812;2023-03-31T07:53:48;13.30;99.90
63313;DHT22;49442;45.640;13.812;2023-03-31T07:56:17;13.40;99.90
63313;DHT22;49442;45.640;13.812;2023-03-31T07:58:43;13.40;99.90
63313;DHT22;49442;45.640;13.812;2023-03-31T08:01:12;13.40;99.90
63313;DHT22;49442;45.640;13.812;2023-03-31T08:03:41;13.40;99.90
63313;DHT22;49442;45.640;13.812;2023-03-31T08:06:07;13.40;99.90
63313;DHT22;49442;45.640;13.812;2023-03-31T08:08:32;13.50;99.90
63313;DHT22;49442;45.640;13.812;2023-03-31T08:10:58;13.50;99.90
63313;DHT22;49442;45.640;13.812;2023-03-31T08:13:27;13.50;99.90
63313;DHT22;49442;45.640;13.812;2023-03-31T08:15:53;13.60;99.90
63313;DHT22;49442;45.640;13.812;2023-03-31T08:18:19;13.50;99.90
63313;DHT22;49442;45.640;13.812;2023-03-31T08:20:44;13.50;99.90
63313;DHT22;49442;45.640;13.812;2023-03-31T08:23:10;13.40;99.90
63313;DHT22;49442;45.640;13.812;2023-03-31T08:25:37;13.40;99.90
63313;DHT22;49442;45.640;13.812;2023-03-31T08:28:02;13.40;99.90
63313;DHT22;49442;45.640;13.812;2023-03-31T08:30:28;13.50;99.90
63313;DHT22;49442;45.640;13.812;2023-03-31T08:32:54;13.50;99.90
63313;DHT22;49442;45.640;13.812;2023-03-31T08:35:19;13.50;99.90
63313;DHT22;49442;45.640;13.812;2023-03-31T08:37:45;13.50;99.90
63313;DHT22;49442;45.640;13.812;2023-03-31T08:40:17;13.40;99.90
63313;DHT22;49442;45.640;13.812;2023-03-31T08:42:47;13.40;99.90
63313;DHT22;49442;45.640;13.812;2023-03-31T08:45:30;13.50;99.90
63313;DHT22;49442;45.640;13.812;2023-03-31T08:48:27;13.50;99.90
63313;DHT22;49442;45.640;13.812;2023-03-31T08:51:05;13.50;99.90
63313;DHT22;49442;45.640;13.812;2023-03-31T08:53:36;13.50;99.90
63313;DHT22;49442;45.640;13.812;2023-03-31T08:56:07;13.60;99.90
63313;DHT22;49442;45.640;13.812;2023-03-31T08:58:44;13.60;99.90
63313;DHT22;49442;45.640;13.812;2023-03-31T09:07:19;13.90;99.90
63313;DHT22;49442;45.640;13.812;2023-03-31T09:15:11;14.30;99.90
63313;DHT22;49442;45.640;13.812;2023-03-31T09:17:43;14.40;99.90
63313;DHT22;49442;45.640;13.812;2023-03-31T09:23:10;14.20;99.90
63313;DHT22;49442;45.640;13.812;2023-03-31T09:25:35;14.30;99.90
63313;DHT22;49442;45.640;13.812;2023-03-31T09:28:05;14.30;99.90
63313;DHT22;49442;45.640;13.812;2023-03-31T09:30:35;14.20;99.90
63313;DHT22;49442;45.640;13.812;2023-03-31T09:33:24;14.20;99.90
63313;DHT22;49442;45.640;13.812;2023-03-31T09:35:52;14.20;99.90
63313;DHT22;49442;45.640;13.812;2023-03-31T09:38:18;14.10;99.90
63313;DHT22;49442;45.640;13.812;2023-03-31T09:40:44;14.10;99.90
63313;DHT22;49442;45.640;13.812;2023-03-31T09:43:21;14.10;99.90
63313;DHT22;49442;45.640;13.812;2023-03-31T09:45:48;14.00;99.90
63313;DHT22;49442;45.640;13.812;2023-03-31T09:48:16;14.00;99.90
63313;DHT22;49442;45.640;13.812;2023-03-31T09:50:58;14.00;99.90
63313;DHT22;49442;45.640;13.812;2023-03-31T09:53:30;13.90;99.90
63313;DHT22;49442;45.640;13.812;2023-03-31T09:56:02;13.80;99.90
63313;DHT22;49442;45.640;13.812;2023-03-31T09:58:28;13.90;99.90
63313;DHT22;49442;45.640;13.812;2023-03-31T10:01:05;13.90;99.90
63313;DHT22;49442;45.640;13.812;2023-03-31T10:03:31;13.90;99.90
63313;DHT22;49442;45.640;13.812;2023-03-31T10:06:08;13.90;99.90
63313;DHT22;49442;45.640;13.812;2023-03-31T10:08:42;14.00;99.90
63313;DHT22;49442;45.640;13.812;2023-03-31T10:11:09;14.10;99.90
63313;DHT22;49442;45.640;13.812;2023-03-31T10:16:42;14.10;99.90
63313;DHT22;49442;45.640;13.812;2023-03-31T10:19:13;14.20;99.90
63313;DHT22;49442;45.640;13.812;2023-03-31T10:21:45;14.20;99.90
63313;DHT22;49442;45.640;13.812;2023-03-31T10:24:11;14.30;99.90
63313;DHT22;49442;45.640;13.812;2023-03-31T10:26:41;14.30;99.90
63313;DHT22;49442;45.640;13.812;2023-03-31T10:29:12;14.40;99.90
63313;DHT22;49442;45.640;13.812;2023-03-31T10:31:40;14.50;99.90
63313;DHT22;49442;45.640;13.812;2023-03-31T10:34:14;14.60;99.90
63313;DHT22;49442;45.640;13.812;2023-03-31T10:36:49;14.70;99.90
63313;DHT22;49442;45.640;13.812;2023-03-31T10:39:17;14.90;99.90
63313;DHT22;49442;45.640;13.812;2023-03-31T10:41:51;15.20;99.90
63313;DHT22;49442;45.640;13.812;2023-03-31T10:44:36;15.30;99.90
63313;DHT22;49442;45.640;13.812;2023-03-31T10:49:40;15.50;99.90
63313;DHT22;49442;45.640;13.812;2023-03-31T10:52:33;15.50;99.90
63313;DHT22;49442;45.640;13.812;2023-03-31T10:55:11;15.40;99.90
63313;DHT22;49442;45.640;13.812;2023-03-31T11:01:09;15.40;99.90
63313;DHT22;49442;45.640;13.812;2023-03-31T11:25:38;15.60;99.90
63313;DHT22;49442;45.640;13.812;2023-03-31T11:28:31;15.60;99.90
63313;DHT22;49442;45.640;13.812;2023-03-31T11:31:23;15.60;99.90
63313;DHT22;49442;45.640;13.812;2023-03-31T11:37:24;15.60;99.90
63313;DHT22;49442;45.640;13.812;2023-03-31T11:41:12;15.60;99.90
63313;DHT22;49442;45.640;13.812;2023-03-31T11:43:21;15.60;99.90
63313;DHT22;49442;45.640;13.812;2023-03-31T11:46:07;15.50;99.90
63313;DHT22;49442;45.640;13.812;2023-03-31T11:49:02;15.40;99.90
63313;DHT22;49442;45.640;13.812;2023-03-31T11:54:40;15.30;99.90
63313;DHT22;49442;45.640;13.812;2023-03-31T11:57:12;15.20;99.90
63313;DHT22;49442;45.640;13.812;2023-03-31T11:59:41;15.10;99.90
63313;DHT22;49442;45.640;13.812;2023-03-31T12:04:44;15.10;99.90
63313;DHT22;49442;45.640;13.812;2023-03-31T12:07:30;15.10;99.90
63313;DHT22;49442;45.640;13.812;2023-03-31T12:10:02;15.10;99.90
63313;DHT22;49442;45.640;13.812;2023-03-31T12:12:39;15.20;99.90
63313;DHT22;49442;45.640;13.812;2023-03-31T12:15:20;15.40;99.90
63313;DHT22;49442;45.640;13.812;2023-03-31T12:17:51;15.40;99.90
63313;DHT22;49442;45.640;13.812;2023-03-31T12:20:54;15.40;99.90
63313;DHT22;49442;45.640;13.812;2023-03-31T12:23:21;15.50;99.90
63313;DHT22;49442;45.640;13.812;2023-03-31T12:28:23;15.50;99.90
63313;DHT22;49442;45.640;13.812;2023-03-31T12:30:49;15.40;99.90
63313;DHT22;49442;45.640;13.812;2023-03-31T12:33:32;15.40;99.90
63313;DHT22;49442;45.640;13.812;2023-03-31T12:44:34;15.40;99.90
63313;DHT22;49442;45.640;13.812;2023-03-31T12:50:42;15.50;99.90
63313;DHT22;49442;45.640;13.812;2023-03-31T13:01:07;15.30;99.90
63313;DHT22;49442;45.640;13.812;2023-03-31T13:06:04;15.40;99.90
63313;DHT22;49442;45.640;13.812;2023-03-31T13:08:49;15.50;99.90
63313;DHT22;49442;45.640;13.812;2023-03-31T13:11:17;15.60;99.90
63313;DHT22;49442;45.640;13.812;2023-03-31T13:13:57;15.70;99.90
63313;DHT22;49442;45.640;13.812;2023-03-31T13:16:23;15.70;99.90
63313;DHT22;49442;45.640;13.812;2023-03-31T13:18:51;15.80;99.50
63313;DHT22;49442;45.640;13.812;2023-03-31T13:21:17;15.70;99.60
63313;DHT22;49442;45.640;13.812;2023-03-31T13:23:44;15.80;99.80
63313;DHT22;49442;45.640;13.812;2023-03-31T13:26:35;15.80;99.90
63313;DHT22;49442;45.640;13.812;2023-03-31T13:32:19;15.70;99.60
63313;DHT22;49442;45.640;13.812;2023-03-31T13:35:19;15.70;99.70
63313;DHT22;49442;45.640;13.812;2023-03-31T13:40:43;15.60;99.60
63313;DHT22;49442;45.640;13.812;2023-03-31T13:51:58;15.50;99.90
63313;DHT22;49442;45.640;13.812;2023-03-31T14:00:27;15.40;99.90
63313;DHT22;49442;45.640;13.812;2023-03-31T14:09:04;15.40;99.90
63313;DHT22;49442;45.640;13.812;2023-03-31T14:11:31;15.30;99.90
63313;DHT22;49442;45.640;13.812;2023-03-31T14:14:17;15.30;99.90
63313;DHT22;49442;45.640;13.812;2023-03-31T14:16:50;15.30;99.90
63313;DHT22;49442;45.640;13.812;2023-03-31T14:22:05;15.20;99.90
63313;DHT22;49442;45.640;13.812;2023-03-31T14:24:54;15.20;99.90
63313;DHT22;49442;45.640;13.812;2023-03-31T14:30:22;15.20;99.90
63313;DHT22;49442;45.640;13.812;2023-03-31T14:36:12;15.20;99.90
63313;DHT22;49442;45.640;13.812;2023-03-31T14:38:41;15.20;99.90
63313;DHT22;49442;45.640;13.812;2023-03-31T14:41:15;15.20;99.90
63313;DHT22;49442;45.640;13.812;2023-03-31T14:43:47;15.20;99.90
63313;DHT22;49442;45.640;13.812;2023-03-31T14:46:18;15.20;99.90
63313;DHT22;49442;45.640;13.812;2023-03-31T14:48:45;15.20;99.90
63313;DHT22;49442;45.640;13.812;2023-03-31T14:51:14;15.20;99.90
63313;DHT22;49442;45.640;13.812;2023-03-31T14:53:41;15.20;99.90
63313;DHT22;49442;45.640;13.812;2023-03-31T14:56:33;15.00;99.90
63313;DHT22;49442;45.640;13.812;2023-03-31T14:59:02;15.00;99.90
63313;DHT22;49442;45.640;13.812;2023-03-31T15:01:31;15.00;99.90
63313;DHT22;49442;45.640;13.812;2023-03-31T15:03:59;15.00;99.90
63313;DHT22;49442;45.640;13.812;2023-03-31T15:06:25;14.90;99.90
63313;DHT22;49442;45.640;13.812;2023-03-31T15:08:54;14.80;99.90
63313;DHT22;49442;45.640;13.812;2023-03-31T15:11:22;14.90;99.90
63313;DHT22;49442;45.640;13.812;2023-03-31T15:13:52;14.90;99.90
63313;DHT22;49442;45.640;13.812;2023-03-31T15:16:37;15.00;99.90
63313;DHT22;49442;45.640;13.812;2023-03-31T15:19:18;15.00;99.90
63313;DHT22;49442;45.640;13.812;2023-03-31T15:21:45;15.00;99.90
63313;DHT22;49442;45.640;13.812;2023-03-31T15:24:14;14.90;99.90
63313;DHT22;49442;45.640;13.812;2023-03-31T15:26:55;14.80;99.90
63313;DHT22;49442;45.640;13.812;2023-03-31T15:32:57;14.70;99.90
63313;DHT22;49442;45.640;13.812;2023-03-31T15:34:58;14.70;99.90
63313;DHT22;49442;45.640;13.812;2023-03-31T15:37:31;14.70;99.90
63313;DHT22;49442;45.640;13.812;2023-03-31T15:40:00;14.60;99.90
63313;DHT22;49442;45.640;13.812;2023-03-31T15:42:27;14.60;99.90
63313;DHT22;49442;45.640;13.812;2023-03-31T15:47:48;14.50;99.90
63313;DHT22;49442;45.640;13.812;2023-03-31T15:50:16;14.50;99.90
63313;DHT22;49442;45.640;13.812;2023-03-31T15:52:48;14.40;99.90
63313;DHT22;49442;45.640;13.812;2023-03-31T15:55:24;14.40;99.90
63313;DHT22;49442;45.640;13.812;2023-03-31T15:57:52;14.30;99.90
63313;DHT22;49442;45.640;13.812;2023-03-31T16:03:03;14.30;99.90
63313;DHT22;49442;45.640;13.812;2023-03-31T16:08:23;14.40;99.90
63313;DHT22;49442;45.640;13.812;2023-03-31T16:11:05;14.30;99.90
63313;DHT22;49442;45.640;13.812;2023-03-31T16:13:34;14.20;99.90
63313;DHT22;49442;45.640;13.812;2023-03-31T16:16:09;14.20;99.90
63313;DHT22;49442;45.640;13.812;2023-03-31T16:18:39;14.10;99.90
63313;DHT22;49442;45.640;13.812;2023-03-31T16:21:07;14.10;99.90
63313;DHT22;49442;45.640;13.812;2023-03-31T16:23:36;14.10;99.90
63313;DHT22;49442;45.640;13.812;2023-03-31T16:26:05;14.10;99.90
63313;DHT22;49442;45.640;13.812;2023-03-31T16:28:35;14.00;99.90
63313;DHT22;49442;45.640;13.812;2023-03-31T16:31:02;14.10;99.90
63313;DHT22;49442;45.640;13.812;2023-03-31T16:33:30;14.10;99.90
63313;DHT22;49442;45.640;13.812;2023-03-31T16:36:15;14.10;99.90
63313;DHT22;49442;45.640;13.812;2023-03-31T16:38:42;14.10;99.90
63313;DHT22;49442;45.640;13.812;2023-03-31T16:41:07;14.00;99.90
63313;DHT22;49442;45.640;13.812;2023-03-31T16:43:33;14.00;99.90
63313;DHT22;49442;45.640;13.812;2023-03-31T16:46:01;14.00;99.90
63313;DHT22;49442;45.640;13.812;2023-03-31T16:48:29;14.00;99.90
63313;DHT22;49442;45.640;13.812;2023-03-31T16:50:57;14.10;99.90
63313;DHT22;49442;45.640;13.812;2023-03-31T16:53:29;14.10;99.90
63313;DHT22;49442;45.640;13.812;2023-03-31T16:55:55;13.90;99.90
63313;DHT22;49442;45.640;13.812;2023-03-31T16:58:22;13.90;99.90
63313;DHT22;49442;45.640;13.812;2023-03-31T17:00:49;13.90;99.90
63313;DHT22;49442;45.640;13.812;2023-03-31T17:03:15;13.90;99.90
63313;DHT22;49442;45.640;13.812;2023-03-31T17:05:46;13.80;99.90
63313;DHT22;49442;45.640;13.812;2023-03-31T17:08:13;13.70;99.90
63313;DHT22;49442;45.640;13.812;2023-03-31T17:10:39;13.70;99.90
63313;DHT22;49442;45.640;13.812;2023-03-31T17:13:06;13.70;99.90
63313;DHT22;49442;45.640;13.812;2023-03-31T17:15:32;13.60;99.90
63313;DHT22;49442;45.640;13.812;2023-03-31T17:18:01;13.50;99.90
63313;DHT22;49442;45.640;13.812;2023-03-31T17:20:28;13.20;99.90
63313;DHT22;49442;45.640;13.812;2023-03-31T17:22:55;13.10;99.90
63313;DHT22;49442;45.640;13.812;2023-03-31T17:25:21;13.10;99.90
63313;DHT22;49442;45.640;13.812;2023-03-31T17:27:47;13.00;99.90
63313;DHT22;49442;45.640;13.812;2023-03-31T17:30:13;12.80;99.90
63313;DHT22;49442;45.640;13.812;2023-03-31T17:32:39;12.80;99.90
63313;DHT22;49442;45.640;13.812;2023-03-31T17:35:05;12.80;99.90
63313;DHT22;49442;45.640;13.812;2023-03-31T17:37:32;12.80;99.90
63313;DHT22;49442;45.640;13.812;2023-03-31T17:39:58;12.70;99.90
63313;DHT22;49442;45.640;13.812;2023-03-31T17:42:24;12.60;99.90
63313;DHT22;49442;45.640;13.812;2023-03-31T17:44:50;12.50;99.90
63313;DHT22;49442;45.640;13.812;2023-03-31T17:47:17;12.40;99.90
63313;DHT22;49442;45.640;13.812;2023-03-31T17:49:43;12.30;99.90
63313;DHT22;49442;45.640;13.812;2023-03-31T17:52:09;12.30;99.90
63313;DHT22;49442;45.640;13.812;2023-03-31T17:54:35;12.20;99.90
63313;DHT22;49442;45.640;13.812;2023-03-31T17:57:01;12.00;99.90
63313;DHT22;49442;45.640;13.812;2023-03-31T17:59:27;11.80;99.90
63313;DHT22;49442;45.640;13.812;2023-03-31T18:01:53;11.80;99.90
63313;DHT22;49442;45.640;13.812;2023-03-31T18:04:19;11.90;99.90
63313;DHT22;49442;45.640;13.812;2023-03-31T18:06:45;11.90;99.90
63313;DHT22;49442;45.640;13.812;2023-03-31T18:09:13;11.80;99.90
63313;DHT22;49442;45.640;13.812;2023-03-31T18:11:40;11.80;99.90
63313;DHT22;49442;45.640;13.812;2023-03-31T18:14:06;11.70;99.90
63313;DHT22;49442;45.640;13.812;2023-03-31T18:16:33;11.70;99.90
63313;DHT22;49442;45.640;13.812;2023-03-31T18:18:59;11.80;99.90
63313;DHT22;49442;45.640;13.812;2023-03-31T18:21:25;11.80;99.90
63313;DHT22;49442;45.640;13.812;2023-03-31T18:23:51;11.90;99.90
63313;DHT22;49442;45.640;13.812;2023-03-31T18:26:18;11.90;99.90
63313;DHT22;49442;45.640;13.812;2023-03-31T18:28:44;11.80;99.90
63313;DHT22;49442;45.640;13.812;2023-03-31T18:31:11;11.80;99.90